sensor_id;sensor_type;location;lat;lon;timestamp;temperature;humidity
8402;DHT22;4238;48.404;9.498;2023-07-28T04:00:31;12.00;99.90
8402;DHT22;4238;48.404;9.498;2023-07-28T04:02:58;12.00;99.90
8402;DHT22;4238;48.404;9.498;2023-07-28T04:05:25;12.00;99.90
8402;DHT22;4238;48.404;9.498;2023-07-28T04:07:52;12.00;99.90
8402;DHT22;4238;48.404;9.498;2023-07-28T04:10:19;12.00;99.90
8402;DHT22;4238;48.404;9.498;2023-07-28T04:12:46;12.10;99.90
8402;DHT22;4238;48.404;9.498;2023-07-28T04:15:13;12.10;99.90
8402;DHT22;4238;48.404;9.498;2023-07-28T04:17:41;12.10;99.90
8402;DHT22;4238;48.404;9.498;2023-07-28T04:20:09;12.00;99.90
8402;DHT22;4238;48.404;9.498;2023-07-28T04:22:36;12.10;99.90
8402;DHT22;4238;48.404;9.498;2023-07-28T04:25:03;12.10;99.90
8402;DHT22;4238;48.404;9.498;2023-07-28T04:27:30;12.00;99.90
8402;DHT22;4238;48.404;9.498;2023-07-28T04:29:57;12.10;99.90
8402;DHT22;4238;48.404;9.498;2023-07-28T04:32:24;12.20;99.90
8402;DHT22;4238;48.404;9.498;2023-07-28T04:34:53;12.30;99.90
8402;DHT22;4238;48.404;9.498;2023-07-28T04:37:20;12.20;99.90
8402;DHT22;4238;48.404;9.498;2023-07-28T04:39:46;12.20;99.90
8402;DHT22;4238;48.404;9.498;2023-07-28T04:42:13;12.20;99.90
8402;DHT22;4238;48.404;9.498;2023-07-28T04:44:40;12.20;99.90
8402;DHT22;4238;48.404;9.498;2023-07-28T04:47:07;12.30;99.90
8402;DHT22;4238;48.404;9.498;2023-07-28T04:49:34;12.40;99.90
8402;DHT22;4238;48.404;9.498;2023-07-28T04:52:02;12.50;99.90
8402;DHT22;4238;48.404;9.498;2023-07-28T04:54:29;12.60;99.90
8402;DHT22;4238;48.404;9.498;2023-07-28T04:56:56;12.80;99.90
8402;DHT22;4238;48.404;9.498;2023-07-28T04:59:23;13.10;99.90
8402;DHT22;4238;48.404;9.498;2023-07-28T05:01:50;13.30;99.90
8402;DHT22;4238;48.404;9.498;2023-07-28T05:04:17;13.40;99.90
8402;DHT22;4238;48.404;9.498;2023-07-28T05:06:44;13.50;99.90
8402;DHT22;4238;48.404;9.498;2023-07-28T05:09:13;13.70;99.90
8402;DHT22;4238;48.404;9.498;2023-07-28T05:11:39;13.90;99.90
8402;DHT22;4238;48.404;9.498;2023-07-28T05:14:06;14.10;99.90
8402;DHT22;4238;48.404;9.498;2023-07-28T05:16:34;14.10;99.90
8402;DHT22;4238;48.404;9.498;2023-07-28T05:19:01;14.20;99.90
8402;DHT22;4238;48.404;9.498;2023-07-28T05:21:28;14.10;99.90
8402;DHT22;4238;48.404;9.498;2023-07-28T05:23:55;14.10;99.90
8402;DHT22;4238;48.404;9.498;2023-07-28T05:26:23;14.10;99.90
8402;DHT22;4238;48.404;9.498;2023-07-28T05:28:50;14.10;99.90
8402;DHT22;4238;48.404;9.498;2023-07-28T05:31:17;14.20;99.90
8402;DHT22;4238;48.404;9.498;2023-07-28T05:33:44;14.20;99.90
8402;DHT22;4238;48.404;9.498;2023-07-28T05:36:11;14.20;99.90
8402;DHT22;4238;48.404;9.498;2023-07-28T05:38:37;14.30;99.90
8402;DHT22;4238;48.404;9.498;2023-07-28T05:41:04;14.30;99.90
8402;DHT22;4238;48.404;9.498;2023-07-28T05:43:34;14.30;99.90
8402;DHT22;4238;48.404;9.498;2023-07-28T05:46:01;14.40;99.90
8402;DHT22;4238;48.404;9.498;2023-07-28T05:48:28;14.40;99.90
8402;DHT22;4238;48.404;9.498;2023-07-28T05:50:55;14.50;99.90
8402;DHT22;4238;48.404;9.498;2023-07-28T05:53:22;14.50;99.90
8402;DHT22;4238;48.404;9.498;2023-07-28T05:55:49;14.50;99.90
8402;DHT22;4238;48.404;9.498;2023-07-28T05:58:15;14.50;99.90
8402;DHT22;4238;48.404;9.498;2023-07-28T06:00:44;14.40;99.90
8402;DHT22;4238;48.404;9.498;2023-07-28T06:03:11;14.50;99.90
8402;DHT22;4238;48.404;9.498;2023-07-28T06:05:38;14.40;99.90
8402;DHT22;4238;48.404;9.498;2023-07-28T06:08:06;14.40;99.90
8402;DHT22;4238;48.404;9.498;2023-07-28T06:10:33;14.40;99.90
8402;DHT22;4238;48.404;9.498;2023-07-28T06:13:00;14.40;99.90
8402;DHT22;4238;48.404;9.498;2023-07-28T06:15:27;14.40;99.90
8402;DHT22;4238;48.404;9.498;2023-07-28T06:17:55;14.40;99.90
8402;DHT22;4238;48.404;9.498;2023-07-28T06:20:22;14.50;99.90
8402;DHT22;4238;48.404;9.498;2023-07-28T06:22:49;14.60;99.90
8402;DHT22;4238;48.404;9.498;2023-07-28T06:25:16;14.60;99.90
8402;DHT22;4238;48.404;9.498;2023-07-28T06:27:43;14.70;99.90
8402;DHT22;4238;48.404;9.498;2023-07-28T06:30:11;14.70;99.90
8402;DHT22;4238;48.404;9.498;2023-07-28T06:32:38;14.70;99.90
8402;DHT22;4238;48.404;9.498;2023-07-28T06:35:07;14.80;99.90
8402;DHT22;4238;48.404;9.498;2023-07-28T06:37:35;14.70;99.90
8402;DHT22;4238;48.404;9.498;2023-07-28T06:40:03;14.70;99.90
8402;DHT22;4238;48.404;9.498;2023-07-28T06:42:32;14.80;99.90
8402;DHT22;4238;48.404;9.498;2023-07-28T06:44:59;14.80;99.90
8402;DHT22;4238;48.404;9.498;2023-07-28T06:47:26;14.90;99.90
8402;DHT22;4238;48.404;9.498;2023-07-28T06:49:52;15.10;99.90
8402;DHT22;4238;48.404;9.498;2023-07-28T06:52:21;15.20;99.90
8402;DHT22;4238;48.404;9.498;2023-07-28T06:54:49;15.40;99.90
8402;DHT22;4238;48.404;9.498;2023-07-28T06:57:16;15.60;99.90
8402;DHT22;4238;48.404;9.498;2023-07-28T06:59:43;15.80;99.90
8402;DHT22;4238;48.404;9.498;2023-07-28T07:02:10;16.00;99.90
8402;DHT22;4238;48.404;9.498;2023-07-28T07:04:37;16.10;99.90
8402;DHT22;4238;48.404;9.498;2023-07-28T07:07:04;16.20;99.90
8402;DHT22;4238;48.404;9.498;2023-07-28T07:09:33;16.30;99.90
8402;DHT22;4238;48.404;9.498;2023-07-28T07:12:00;16.50;99.90
8402;DHT22;4238;48.404;9.498;2023-07-28T07:14:27;16.60;99.90
8402;DHT22;4238;48.404;9.498;2023-07-28T07:16:54;16.70;99.90
8402;DHT22;4238;48.404;9.498;2023-07-28T07:19:21;16.80;99.90
8402;DHT22;4238;48.404;9.498;2023-07-28T07:21:46;16.90;99.90
8402;DHT22;4238;48.404;9.498;2023-07-28T07:24:14;17.00;99.90
8402;DHT22;4238;48.404;9.498;2023-07-28T07:26:43;17.00;99.90
8402;DHT22;4238;48.404;9.498;2023-07-28T07:29:10;17.00;99.90
8402;DHT22;4238;48.404;9.498;2023-07-28T07:31:37;17.00;99.90
8402;DHT22;4238;48.404;9.498;2023-07-28T07:34:04;17.00;99.90
8402;DHT22;4238;48.404;9.498;2023-07-28T07:36:31;17.10;99.90
8402;DHT22;4238;48.404;9.498;2023-07-28T07:38:58;17.10;99.90
8402;DHT22;4238;48.404;9.498;2023-07-28T07:41:25;17.30;99.90
8402;DHT22;4238;48.404;9.498;2023-07-28T07:43:54;17.40;99.90
8402;DHT22;4238;48.404;9.498;2023-07-28T07:46:21;17.60;99.90
8402;DHT22;4238;48.404;9.498;2023-07-28T07:48:48;17.80;99.90
8402;DHT22;4238;48.404;9.498;2023-07-28T07:51:15;18.00;99.90
8402;DHT22;4238;48.404;9.498;2023-07-28T07:53:42;18.30;99.90
8402;DHT22;4238;48.404;9.498;2023-07-28T07:56:09;18.50;99.90
8402;DHT22;4238;48.404;9.498;2023-07-28T07:58:37;18.70;99.90
8402;DHT22;4238;48.404;9.498;2023-07-28T08:01:05;18.90;99.90
8402;DHT22;4238;48.404;9.498;2023-07-28T08:03:32;18.90;99.80
8402;DHT22;4238;48.404;9.498;2023-07-28T08:05:59;18.90;92.90
8402;DHT22;4238;48.404;9.498;2023-07-28T08:08:26;18.80;90.40
8402;DHT22;4238;48.404;9.498;2023-07-28T08:10:52;18.70;99.90
8402;DHT22;4238;48.404;9.498;2023-07-28T08:13:19;18.70;99.90
8402;DHT22;4238;48.404;9.498;2023-07-28T08:15:47;18.70;99.90
8402;DHT22;4238;48.404;9.498;2023-07-28T08:18:15;18.70;99.90
8402;DHT22;4238;48.404;9.498;2023-07-28T08:20:42;18.80;99.90
8402;DHT22;4238;48.404;9.498;2023-07-28T08:23:09;18.90;99.90
8402;DHT22;4238;48.404;9.498;2023-07-28T08:25:36;19.00;99.90
8402;DHT22;4238;48.404;9.498;2023-07-28T08:28:03;19.00;99.90
8402;DHT22;4238;48.404;9.498;2023-07-28T08:30:30;19.00;99.90
8402;DHT22;4238;48.404;9.498;2023-07-28T08:32:58;19.20;99.30
8402;DHT22;4238;48.404;9.498;2023-07-28T08:35:26;19.20;95.50
8402;DHT22;4238;48.404;9.498;2023-07-28T08:37:53;19.20;93.50
8402;DHT22;4238;48.404;9.498;2023-07-28T08:40:19;19.30;92.30
8402;DHT22;4238;48.404;9.498;2023-07-28T08:42:46;19.50;93.00
8402;DHT22;4238;48.404;9.498;2023-07-28T08:45:15;19.60;93.50
8402;DHT22;4238;48.404;9.498;2023-07-28T08:47:42;19.60;85.40
8402;DHT22;4238;48.404;9.498;2023-07-28T08:50:09;19.70;78.70
8402;DHT22;4238;48.404;9.498;2023-07-28T08:52:38;19.70;73.10
8402;DHT22;4238;48.404;9.498;2023-07-28T08:55:05;19.80;67.50
8402;DHT22;4238;48.404;9.498;2023-07-28T08:57:33;19.80;79.60
8402;DHT22;4238;48.404;9.498;2023-07-28T09:00:07;19.90;90.80
8402;DHT22;4238;48.404;9.498;2023-07-28T09:02:34;20.10;96.00
8402;DHT22;4238;48.404;9.498;2023-07-28T09:05:03;20.10;59.20
8402;DHT22;4238;48.404;9.498;2023-07-28T09:07:34;20.10;61.70
8402;DHT22;4238;48.404;9.498;2023-07-28T09:10:02;20.20;74.20
8402;DHT22;4238;48.404;9.498;2023-07-28T09:12:31;20.10;75.20
8402;DHT22;4238;48.404;9.498;2023-07-28T09:14:58;19.90;91.60
8402;DHT22;4238;48.404;9.498;2023-07-28T09:17:25;19.80;92.10
8402;DHT22;4238;48.404;9.498;2023-07-28T09:19:53;19.70;91.70
8402;DHT22;4238;48.404;9.498;2023-07-28T09:22:20;19.70;93.50
8402;DHT22;4238;48.404;9.498;2023-07-28T09:24:47;19.60;82.80
8402;DHT22;4238;48.404;9.498;2023-07-28T09:27:23;19.70;89.80
8402;DHT22;4238;48.404;9.498;2023-07-28T09:29:51;19.90;89.20
8402;DHT22;4238;48.404;9.498;2023-07-28T09:32:26;20.40;90.30
8402;DHT22;4238;48.404;9.498;2023-07-28T09:35:09;20.90;73.50
8402;DHT22;4238;48.404;9.498;2023-07-28T09:37:39;21.30;3.30
8402;DHT22;4238;48.404;9.498;2023-07-28T09:40:08;22.10;11.20
8402;DHT22;4238;48.404;9.498;2023-07-28T09:42:38;22.50;1.00
8402;DHT22;4238;48.404;9.498;2023-07-28T09:45:06;22.80;1.00
8402;DHT22;4238;48.404;9.498;2023-07-28T09:47:33;23.00;1.00
8402;DHT22;4238;48.404;9.498;2023-07-28T09:50:02;23.40;1.00
8402;DHT22;4238;48.404;9.498;2023-07-28T09:52:33;23.50;1.00
8402;DHT22;4238;48.404;9.498;2023-07-28T09:55:05;23.60;99.90
8402;DHT22;4238;48.404;9.498;2023-07-28T09:57:38;23.80;1.00
8402;DHT22;4238;48.404;9.498;2023-07-28T10:00:08;24.00;43.20
8402;DHT22;4238;48.404;9.498;2023-07-28T10:02:36;24.20;99.90
8402;DHT22;4238;48.404;9.498;2023-07-28T10:05:05;24.40;1.00
8402;DHT22;4238;48.404;9.498;2023-07-28T10:07:33;24.40;1.00
8402;DHT22;4238;48.404;9.498;2023-07-28T10:10:02;24.30;99.90
8402;DHT22;4238;48.404;9.498;2023-07-28T10:12:41;24.20;1.00
8402;DHT22;4238;48.404;9.498;2023-07-28T10:15:13;24.30;1.00
8402;DHT22;4238;48.404;9.498;2023-07-28T10:17:44;24.30;99.90
8402;DHT22;4238;48.404;9.498;2023-07-28T10:20:31;24.30;1.00
8402;DHT22;4238;48.404;9.498;2023-07-28T10:23:05;24.20;1.00
8402;DHT22;4238;48.404;9.498;2023-07-28T10:25:34;23.80;99.90
8402;DHT22;4238;48.404;9.498;2023-07-28T10:28:04;23.50;99.90
8402;DHT22;4238;48.404;9.498;2023-07-28T10:30:35;23.20;99.90
8402;DHT22;4238;48.404;9.498;2023-07-28T10:33:04;23.20;99.50
8402;DHT22;4238;48.404;9.498;2023-07-28T10:35:31;23.40;1.00
8402;DHT22;4238;48.404;9.498;2023-07-28T10:38:27;24.10;99.90
8402;DHT22;4238;48.404;9.498;2023-07-28T10:41:05;24.50;27.90
8402;DHT22;4238;48.404;9.498;2023-07-28T10:43:34;24.50;99.90
8402;DHT22;4238;48.404;9.498;2023-07-28T10:46:01;24.40;99.90
8402;DHT22;4238;48.404;9.498;2023-07-28T10:48:28;24.70;1.00
8402;DHT22;4238;48.404;9.498;2023-07-28T10:50:54;25.10;1.00
8402;DHT22;4238;48.404;9.498;2023-07-28T10:53:21;25.20;1.00
8402;DHT22;4238;48.404;9.498;2023-07-28T10:55:48;25.20;99.90
8402;DHT22;4238;48.404;9.498;2023-07-28T10:58:15;25.10;1.00
8402;DHT22;4238;48.404;9.498;2023-07-28T11:00:43;24.90;99.90
8402;DHT22;4238;48.404;9.498;2023-07-28T11:03:10;24.70;99.90
8402;DHT22;4238;48.404;9.498;2023-07-28T11:05:39;24.40;99.90
8402;DHT22;4238;48.404;9.498;2023-07-28T11:08:07;24.00;99.90
8402;DHT22;4238;48.404;9.498;2023-07-28T11:10:34;23.70;99.90
8402;DHT22;4238;48.404;9.498;2023-07-28T11:13:02;23.30;1.00
8402;DHT22;4238;48.404;9.498;2023-07-28T11:15:30;23.10;1.00
8402;DHT22;4238;48.404;9.498;2023-07-28T11:17:58;22.80;1.00
8402;DHT22;4238;48.404;9.498;2023-07-28T11:20:26;22.50;99.90
8402;DHT22;4238;48.404;9.498;2023-07-28T11:22:56;22.30;99.90
8402;DHT22;4238;48.404;9.498;2023-07-28T11:25:24;22.30;1.00
8402;DHT22;4238;48.404;9.498;2023-07-28T11:27:51;22.30;1.00
8402;DHT22;4238;48.404;9.498;2023-07-28T11:30:19;22.30;1.00
8402;DHT22;4238;48.404;9.498;2023-07-28T11:32:48;22.20;1.00
8402;DHT22;4238;48.404;9.498;2023-07-28T11:35:18;22.10;1.00
8402;DHT22;4238;48.404;9.498;2023-07-28T11:37:47;21.90;1.00
8402;DHT22;4238;48.404;9.498;2023-07-28T11:40:18;21.70;1.00
8402;DHT22;4238;48.404;9.498;2023-07-28T11:42:47;21.50;1.00
8402;DHT22;4238;48.404;9.498;2023-07-28T11:45:16;21.30;1.00
8402;DHT22;4238;48.404;9.498;2023-07-28T11:47:54;21.20;1.00
8402;DHT22;4238;48.404;9.498;2023-07-28T11:50:27;21.10;1.00
8402;DHT22;4238;48.404;9.498;2023-07-28T11:52:55;21.10;1.00
8402;DHT22;4238;48.404;9.498;2023-07-28T11:55:23;21.10;1.00
8402;DHT22;4238;48.404;9.498;2023-07-28T11:57:51;21.20;1.00
8402;DHT22;4238;48.404;9.498;2023-07-28T12:00:18;21.40;1.00
8402;DHT22;4238;48.404;9.498;2023-07-28T12:03:00;21.50;1.00
8402;DHT22;4238;48.404;9.498;2023-07-28T12:05:30;21.50;1.00
8402;DHT22;4238;48.404;9.498;2023-07-28T12:07:57;21.50;1.00
8402;DHT22;4238;48.404;9.498;2023-07-28T12:10:24;21.50;1.00
8402;DHT22;4238;48.404;9.498;2023-07-28T12:12:51;21.40;1.00
8402;DHT22;4238;48.404;9.498;2023-07-28T12:15:20;21.40;1.00
8402;DHT22;4238;48.404;9.498;2023-07-28T12:18:04;21.40;1.00
8402;DHT22;4238;48.404;9.498;2023-07-28T12:20:38;21.30;1.00
8402;DHT22;4238;48.404;9.498;2023-07-28T12:23:05;21.10;1.00
8402;DHT22;4238;48.404;9.498;2023-07-28T12:25:32;21.00;1.00
8402;DHT22;4238;48.404;9.498;2023-07-28T12:27:59;21.00;1.00
8402;DHT22;4238;48.404;9.498;2023-07-28T12:30:26;20.90;1.00
8402;DHT22;4238;48.404;9.498;2023-07-28T12:32:53;20.80;1.00
8402;DHT22;4238;48.404;9.498;2023-07-28T12:35:20;20.80;1.00
8402;DHT22;4238;48.404;9.498;2023-07-28T12:37:50;20.90;1.00
8402;DHT22;4238;48.404;9.498;2023-07-28T12:40:17;21.10;2.10
8402;DHT22;4238;48.404;9.498;2023-07-28T12:42:45;21.20;1.00
8402;DHT22;4238;48.404;9.498;2023-07-28T12:45:12;21.40;1.00
8402;DHT22;4238;48.404;9.498;2023-07-28T12:47:39;21.50;1.00
8402;DHT22;4238;48.404;9.498;2023-07-28T12:50:07;21.60;1.00
8402;DHT22;4238;48.404;9.498;2023-07-28T12:52:34;21.70;1.00
8402;DHT22;4238;48.404;9.498;2023-07-28T12:55:03;21.70;1.00
8402;DHT22;4238;48.404;9.498;2023-07-28T12:57:30;21.80;1.00
8402;DHT22;4238;48.404;9.498;2023-07-28T12:59:57;21.70;1.00
8402;DHT22;4238;48.404;9.498;2023-07-28T13:02:24;21.80;1.00
8402;DHT22;4238;48.404;9.498;2023-07-28T13:04:51;21.90;1.00
8402;DHT22;4238;48.404;9.498;2023-07-28T13:07:18;21.90;1.00
8402;DHT22;4238;48.404;9.498;2023-07-28T13:09:44;21.90;1.00
8402;DHT22;4238;48.404;9.498;2023-07-28T13:12:13;22.00;1.00
8402;DHT22;4238;48.404;9.498;2023-07-28T13:14:40;22.00;1.00
8402;DHT22;4238;48.404;9.498;2023-07-28T13:17:07;22.10;1.00
8402;DHT22;4238;48.404;9.498;2023-07-28T13:19:34;22.10;1.00
8402;DHT22;4238;48.404;9.498;2023-07-28T13:22:01;22.10;1.00
8402;DHT22;4238;48.404;9.498;2023-07-28T13:24:28;22.00;1.00
8402;DHT22;4238;48.404;9.498;2023-07-28T13:26:54;21.90;1.00
8402;DHT22;4238;48.404;9.498;2023-07-28T13:29:24;21.80;1.00
8402;DHT22;4238;48.404;9.498;2023-07-28T13:31:50;21.80;1.00
8402;DHT22;4238;48.404;9.498;2023-07-28T13:34:17;21.80;1.00
8402;DHT22;4238;48.404;9.498;2023-07-28T13:36:44;21.80;1.00
8402;DHT22;4238;48.404;9.498;2023-07-28T13:39:11;21.70;1.00
8402;DHT22;4238;48.404;9.498;2023-07-28T13:41:38;21.50;1.00
8402;DHT22;4238;48.404;9.498;2023-07-28T13:44:04;21.50;6.60
8402;DHT22;4238;48.404;9.498;2023-07-28T13:46:33;21.50;6.70
8402;DHT22;4238;48.404;9.498;2023-07-28T13:48:59;21.70;9.00
8402;DHT22;4238;48.404;9.498;2023-07-28T13:51:26;21.80;1.00
8402;DHT22;4238;48.404;9.498;2023-07-28T13:53:53;21.70;2.30
8402;DHT22;4238;48.404;9.498;2023-07-28T13:56:20;21.50;1.00
8402;DHT22;4238;48.404;9.498;2023-07-28T13:58:47;21.50;1.00
8402;DHT22;4238;48.404;9.498;2023-07-28T14:01:14;21.40;10.90
8402;DHT22;4238;48.404;9.498;2023-07-28T14:03:42;21.30;9.10
8402;DHT22;4238;48.404;9.498;2023-07-28T14:06:09;21.20;14.50
8402;DHT22;4238;48.404;9.498;2023-07-28T14:08:36;21.20;18.20
8402;DHT22;4238;48.404;9.498;2023-07-28T14:11:03;21.10;13.10
8402;DHT22;4238;48.404;9.498;2023-07-28T14:13:30;21.10;31.00
8402;DHT22;4238;48.404;9.498;2023-07-28T14:15:58;21.10;18.40
8402;DHT22;4238;48.404;9.498;2023-07-28T14:18:25;21.20;30.60
8402;DHT22;4238;48.404;9.498;2023-07-28T14:20:53;21.20;19.20
8402;DHT22;4238;48.404;9.498;2023-07-28T14:23:22;21.20;18.90
8402;DHT22;4238;48.404;9.498;2023-07-28T14:25:49;21.20;19.90
8402;DHT22;4238;48.404;9.498;2023-07-28T14:28:16;21.10;25.20
8402;DHT22;4238;48.404;9.498;2023-07-28T14:30:43;21.00;20.60
8402;DHT22;4238;48.404;9.498;2023-07-28T14:33:12;20.90;1.00
8402;DHT22;4238;48.404;9.498;2023-07-28T14:35:38;20.80;1.00
8402;DHT22;4238;48.404;9.498;2023-07-28T14:38:07;20.70;1.00
8402;DHT22;4238;48.404;9.498;2023-07-28T14:40:35;20.60;1.00
8402;DHT22;4238;48.404;9.498;2023-07-28T14:43:02;20.40;1.00
8402;DHT22;4238;48.404;9.498;2023-07-28T14:45:29;20.40;9.70
8402;DHT22;4238;48.404;9.498;2023-07-28T14:47:56;20.40;19.00
8402;DHT22;4238;48.404;9.498;2023-07-28T14:50:23;20.40;19.20
8402;DHT22;4238;48.404;9.498;2023-07-28T14:52:50;20.30;28.70
8402;DHT22;4238;48.404;9.498;2023-07-28T14:55:18;20.30;18.50
8402;DHT22;4238;48.404;9.498;2023-07-28T14:57:45;20.40;25.10
8402;DHT22;4238;48.404;9.498;2023-07-28T15:00:12;20.30;21.70
8402;DHT22;4238;48.404;9.498;2023-07-28T15:02:39;20.30;36.40
8402;DHT22;4238;48.404;9.498;2023-07-28T15:05:06;20.20;38.40
8402;DHT22;4238;48.404;9.498;2023-07-28T15:07:34;20.30;60.60
8402;DHT22;4238;48.404;9.498;2023-07-28T15:10:01;20.40;62.20
8402;DHT22;4238;48.404;9.498;2023-07-28T15:12:30;20.50;55.30
8402;DHT22;4238;48.404;9.498;2023-07-28T15:14:57;20.60;42.80
8402;DHT22;4238;48.404;9.498;2023-07-28T15:17:24;20.70;33.60
8402;DHT22;4238;48.404;9.498;2023-07-28T15:19:50;20.70;41.90
8402;DHT22;4238;48.404;9.498;2023-07-28T15:22:17;20.80;25.10
8402;DHT22;4238;48.404;9.498;2023-07-28T15:24:44;20.70;1.10
8402;DHT22;4238;48.404;9.498;2023-07-28T15:27:11;20.80;36.00
8402;DHT22;4238;48.404;9.498;2023-07-28T15:29:40;20.80;43.80
8402;DHT22;4238;48.404;9.498;2023-07-28T15:32:07;20.80;44.20
8402;DHT22;4238;48.404;9.498;2023-07-28T15:34:33;20.80;55.50
8402;DHT22;4238;48.404;9.498;2023-07-28T15:37:01;20.90;47.70
8402;DHT22;4238;48.404;9.498;2023-07-28T15:39:29;20.90;63.10
8402;DHT22;4238;48.404;9.498;2023-07-28T15:41:56;20.90;39.80
8402;DHT22;4238;48.404;9.498;2023-07-28T15:44:23;20.90;29.90
8402;DHT22;4238;48.404;9.498;2023-07-28T15:46:52;20.90;31.10
8402;DHT22;4238;48.404;9.498;2023-07-28T15:49:19;20.80;13.50
8402;DHT22;4238;48.404;9.498;2023-07-28T15:51:46;20.80;22.70
8402;DHT22;4238;48.404;9.498;2023-07-28T15:54:13;20.70;39.80
8402;DHT22;4238;48.404;9.498;2023-07-28T15:56:40;20.70;39.00
8402;DHT22;4238;48.404;9.498;2023-07-28T15:59:07;20.60;27.30
8402;DHT22;4238;48.404;9.498;2023-07-28T16:01:34;20.60;36.50
8402;DHT22;4238;48.404;9.498;2023-07-28T16:04:03;20.70;32.70
8402;DHT22;4238;48.404;9.498;2023-07-28T16:06:30;20.70;38.40
8402;DHT22;4238;48.404;9.498;2023-07-28T16:08:57;20.70;51.40
8402;DHT22;4238;48.404;9.498;2023-07-28T16:11:23;20.70;41.90
8402;DHT22;4238;48.404;9.498;2023-07-28T16:13:50;20.70;38.10
8402;DHT22;4238;48.404;9.498;2023-07-28T16:16:17;20.70;40.40
8402;DHT22;4238;48.404;9.498;2023-07-28T16:18:44;20.60;40.20
8402;DHT22;4238;48.404;9.498;2023-07-28T16:21:12;20.50;39.30
8402;DHT22;4238;48.404;9.498;2023-07-28T16:23:39;20.40;31.40
8402;DHT22;4238;48.404;9.498;2023-07-28T16:26:06;20.40;40.20
8402;DHT22;4238;48.404;9.498;2023-07-28T16:28:33;20.30;50.10
8402;DHT22;4238;48.404;9.498;2023-07-28T16:31:00;20.30;54.50
8402;DHT22;4238;48.404;9.498;2023-07-28T16:33:27;20.20;58.20
8402;DHT22;4238;48.404;9.498;2023-07-28T16:35:53;20.10;71.70
8402;DHT22;4238;48.404;9.498;2023-07-28T16:38:22;20.00;68.40
8402;DHT22;4238;48.404;9.498;2023-07-28T16:40:49;19.90;71.30
8402;DHT22;4238;48.404;9.498;2023-07-28T16:43:15;19.80;90.20
8402;DHT22;4238;48.404;9.498;2023-07-28T16:45:42;19.80;90.10
8402;DHT22;4238;48.404;9.498;2023-07-28T16:48:09;19.70;83.30
8402;DHT22;4238;48.404;9.498;2023-07-28T16:50:36;19.60;90.00
8402;DHT22;4238;48.404;9.498;2023-07-28T16:53:03;19.50;92.50
8402;DHT22;4238;48.404;9.498;2023-07-28T16:55:31;19.40;99.70
8402;DHT22;4238;48.404;9.498;2023-07-28T16:57:58;19.40;96.70
8402;DHT22;4238;48.404;9.498;2023-07-28T17:00:25;19.30;99.20
8402;DHT22;4238;48.404;9.498;2023-07-28T17:02:52;19.10;99.90
8402;DHT22;4238;48.404;9.498;2023-07-28T17:05:19;18.90;99.90
8402;DHT22;4238;48.404;9.498;2023-07-28T17:07:47;18.70;99.90
8402;DHT22;4238;48.404;9.498;2023-07-28T17:10:14;18.60;99.90
8402;DHT22;4238;48.404;9.498;2023-07-28T17:12:42;18.70;99.90
8402;DHT22;4238;48.404;9.498;2023-07-28T17:15:09;18.70;99.90
8402;DHT22;4238;48.404;9.498;2023-07-28T17:17:36;18.60;99.90
8402;DHT22;4238;48.404;9.498;2023-07-28T17:20:04;18.70;99.90
8402;DHT22;4238;48.404;9.498;2023-07-28T17:22:31;18.60;99.90
8402;DHT22;4238;48.404;9.498;2023-07-28T17:25:00;18.60;99.90
8402;DHT22;4238;48.404;9.498;2023-07-28T17:27:26;18.60;99.90
8402;DHT22;4238;48.404;9.498;2023-07-28T17:29:55;18.50;99.90
8402;DHT22;4238;48.404;9.498;2023-07-28T17:32:23;18.50;99.90
8402;DHT22;4238;48.404;9.498;2023-07-28T17:34:51;18.40;99.90
8402;DHT22;4238;48.404;9.498;2023-07-28T17:37:18;18.40;99.90
8402;DHT22;4238;48.404;9.498;2023-07-28T17:39:45;18.40;99.90
8402;DHT22;4238;48.404;9.498;2023-07-28T17:42:11;18.30;99.90
8402;DHT22;4238;48.404;9.498;2023-07-28T17:44:38;18.20;99.90
8402;DHT22;4238;48.404;9.498;2023-07-28T17:47:07;18.20;99.90
8402;DHT22;4238;48.404;9.498;2023-07-28T17:49:33;18.20;99.90
8402;DHT22;4238;48.404;9.498;2023-07-28T17:52:00;18.20;99.90
8402;DHT22;4238;48.404;9.498;2023-07-28T17:54:27;18.10;99.90
8402;DHT22;4238;48.404;9.498;2023-07-28T17:56:54;18.10;99.90
8402;DHT22;4238;48.404;9.498;2023-07-28T17:59:21;18.10;99.90
8402;DHT22;4238;48.404;9.498;2023-07-28T18:01:48;18.00;99.90
8402;DHT22;4238;48.404;9.498;2023-07-28T18:04:16;18.00;99.90
8402;DHT22;4238;48.404;9.498;2023-07-28T18:06:44;17.80;99.90
8402;DHT22;4238;48.404;9.498;2023-07-28T18:09:11;17.60;99.90
8402;DHT22;4238;48.404;9.498;2023-07-28T18:11:38;17.60;99.90
8402;DHT22;4238;48.404;9.498;2023-07-28T18:14:05;17.60;99.90
8402;DHT22;4238;48.404;9.498;2023-07-28T18:16:32;17.60;99.90
8402;DHT22;4238;48.404;9.498;2023-07-28T18:18:58;17.70;99.90
8402;DHT22;4238;48.404;9.498;2023-07-28T18:21:27;17.70;99.90
8402;DHT22;4238;48.404;9.498;2023-07-28T18:23:54;17.70;99.90
8402;DHT22;4238;48.404;9.498;2023-07-28T18:26:20;17.50;99.90
8402;DHT22;4238;48.404;9.498;2023-07-28T18:28:47;17.50;99.90
8402;DHT22;4238;48.404;9.498;2023-07-28T18:31:14;17.60;99.90
8402;DHT22;4238;48.404;9.498;2023-07-28T18:33:41;17.50;99.90
8402;DHT22;4238;48.404;9.498;2023-07-28T18:36:08;17.50;99.90
8402;DHT22;4238;48.404;9.498;2023-07-28T18:38:36;17.50;99.90
8402;DHT22;4238;48.404;9.498;2023-07-28T18:41:03;17.50;99.90
8402;DHT22;4238;48.404;9.498;2023-07-28T18:43:30;17.40;99.90
8402;DHT22;4238;48.404;9.498;2023-07-28T18:45:57;17.40;99.90
8402;DHT22;4238;48.404;9.498;2023-07-28T18:48:24;17.30;99.90
8402;DHT22;4238;48.404;9.498;2023-07-28T18:50:51;17.30;99.90
8402;DHT22;4238;48.404;9.498;2023-07-28T18:53:18;17.20;99.90
8402;DHT22;4238;48.404;9.498;2023-07-28T18:55:46;17.20;99.90
8402;DHT22;4238;48.404;9.498;2023-07-28T18:58:13;17.20;99.90
8402;DHT22;4238;48.404;9.498;2023-07-28T19:00:40;17.10;99.90
8402;DHT22;4238;48.404;9.498;2023-07-28T19:03:07;17.00;99.90
8402;DHT22;4238;48.404;9.498;2023-07-28T19:05:34;17.00;99.90
8402;DHT22;4238;48.404;9.498;2023-07-28T19:08:01;17.00;99.90
8402;DHT22;4238;48.404;9.498;2023-07-28T19:10:28;17.00;99.90
8402;DHT22;4238;48.404;9.498;2023-07-28T19:12:56;17.00;99.90
8402;DHT22;4238;48.404;9.498;2023-07-28T19:15:23;16.90;99.90
8402;DHT22;4238;48.404;9.498;2023-07-28T19:17:50;16.90;99.90
8402;DHT22;4238;48.404;9.498;2023-07-28T19:20:17;16.80;99.90
8402;DHT22;4238;48.404;9.498;2023-07-28T19:22:45;16.80;99.90
8402;DHT22;4238;48.404;9.498;2023-07-28T19:25:12;16.80;99.90
8402;DHT22;4238;48.404;9.498;2023-07-28T19:27:39;16.70;99.90
8402;DHT22;4238;48.404;9.498;2023-07-28T19:30:09;16.70;99.90
8402;DHT22;4238;48.404;9.498;2023-07-28T19:32:36;16.60;99.90
8402;DHT22;4238;48.404;9.498;2023-07-28T19:35:04;16.50;99.90
8402;DHT22;4238;48.404;9.498;2023-07-28T19:37:31;16.50;99.90
8402;DHT22;4238;48.404;9.498;2023-07-28T19:39:57;16.50;99.90
8402;DHT22;4238;48.404;9.498;2023-07-28T19:42:24;16.30;99.90
8402;DHT22;4238;48.404;9.498;2023-07-28T19:44:51;16.40;99.90
8402;DHT22;4238;48.404;9.498;2023-07-28T19:47:21;16.30;99.90
8402;DHT22;4238;48.404;9.498;2023-07-28T19:49:48;16.20;99.90
8402;DHT22;4238;48.404;9.498;2023-07-28T19:52:16;16.20;99.90
8402;DHT22;4238;48.404;9.498;2023-07-28T19:54:43;16.20;99.90
8402;DHT22;4238;48.404;9.498;2023-07-28T19:57:09;16.20;99.90
8402;DHT22;4238;48.404;9.498;2023-07-28T19:59:36;16.10;99.90
8402;DHT22;4238;48.404;9.498;2023-07-28T20:02:03;16.10;99.90
8402;DHT22;4238;48.404;9.498;2023-07-28T20:04:32;16.10;99.90
8402;DHT22;4238;48.404;9.498;2023-07-28T20:07:00;16.20;99.90